sensor_id;sensor_type;location;lat;lon;timestamp;P1;durP1;ratioP1;P2;durP2;ratioP2
10246;SDS011;5168;47.854;7.944;2023-08-31T00:01:08;2.60;;;2.40;;
10246;SDS011;5168;47.854;7.944;2023-08-31T00:03:34;3.30;;;2.43;;
10246;SDS011;5168;47.854;7.944;2023-08-31T00:06:03;2.27;;;2.07;;
10246;SDS011;5168;47.854;7.944;2023-08-31T00:08:29;2.60;;;2.00;;
10246;SDS011;5168;47.854;7.944;2023-08-31T00:10:55;2.00;;;1.90;;
10246;SDS011;5168;47.854;7.944;2023-08-31T00:13:25;3.37;;;2.13;;
10246;SDS011;5168;47.854;7.944;2023-08-31T00:15:53;2.20;;;2.00;;
10246;SDS011;5168;47.854;7.944;2023-08-31T00:18:22;2.30;;;2.10;;
10246;SDS011;5168;47.854;7.944;2023-08-31T00:20:49;2.43;;;2.20;;
10246;SDS011;5168;47.854;7.944;2023-08-31T00:23:15;2.60;;;2.30;;
10246;SDS011;5168;47.854;7.944;2023-08-31T00:25:40;2.40;;;2.20;;
10246;SDS011;5168;47.854;7.944;2023-08-31T00:28:08;2.40;;;2.20;;
10246;SDS011;5168;47.854;7.944;2023-08-31T00:30:34;2.57;;;2.20;;
10246;SDS011;5168;47.854;7.944;2023-08-31T00:33:00;2.70;;;2.50;;
10246;SDS011;5168;47.854;7.944;2023-08-31T00:35:26;3.20;;;2.33;;
10246;SDS011;5168;47.854;7.944;2023-08-31T00:37:52;3.13;;;2.10;;
10246;SDS011;5168;47.854;7.944;2023-08-31T00:40:22;2.30;;;2.00;;
10246;SDS011;5168;47.854;7.944;2023-08-31T00:42:48;2.20;;;2.03;;
10246;SDS011;5168;47.854;7.944;2023-08-31T00:45:13;2.20;;;2.00;;
10246;SDS011;5168;47.854;7.944;2023-08-31T00:47:40;2.13;;;1.93;;
10246;SDS011;5168;47.854;7.944;2023-08-31T00:50:06;2.10;;;2.00;;
10246;SDS011;5168;47.854;7.944;2023-08-31T00:52:33;2.27;;;2.07;;
10246;SDS011;5168;47.854;7.944;2023-08-31T00:54:59;2.43;;;1.87;;
10246;SDS011;5168;47.854;7.944;2023-08-31T00:57:28;1.90;;;1.80;;
10246;SDS011;5168;47.854;7.944;2023-08-31T00:59:53;2.07;;;1.97;;
10246;SDS011;5168;47.854;7.944;2023-08-31T01:02:22;1.90;;;1.80;;
10246;SDS011;5168;47.854;7.944;2023-08-31T01:07:25;1.90;;;1.80;;
10246;SDS011;5168;47.854;7.944;2023-08-31T01:15:14;2.20;;;2.00;;
10246;SDS011;5168;47.854;7.944;2023-08-31T01:17:44;2.30;;;2.10;;
10246;SDS011;5168;47.854;7.944;2023-08-31T01:20:17;3.47;;;2.20;;
10246;SDS011;5168;47.854;7.944;2023-08-31T01:22:57;2.97;;;2.30;;
10246;SDS011;5168;47.854;7.944;2023-08-31T01:25:29;2.93;;;2.37;;
10246;SDS011;5168;47.854;7.944;2023-08-31T01:27:56;4.60;;;2.37;;
10246;SDS011;5168;47.854;7.944;2023-08-31T01:30:21;2.50;;;2.30;;
10246;SDS011;5168;47.854;7.944;2023-08-31T01:32:47;2.50;;;2.30;;
10246;SDS011;5168;47.854;7.944;2023-08-31T01:35:14;2.63;;;2.43;;
10246;SDS011;5168;47.854;7.944;2023-08-31T01:38:15;2.40;;;2.20;;
10246;SDS011;5168;47.854;7.944;2023-08-31T01:40:54;2.70;;;2.50;;
10246;SDS011;5168;47.854;7.944;2023-08-31T01:43:25;3.87;;;2.57;;
10246;SDS011;5168;47.854;7.944;2023-08-31T01:45:52;3.53;;;2.23;;
10246;SDS011;5168;47.854;7.944;2023-08-31T01:48:19;3.20;;;2.50;;
10246;SDS011;5168;47.854;7.944;2023-08-31T01:50:44;3.87;;;2.70;;
10246;SDS011;5168;47.854;7.944;2023-08-31T01:53:09;3.27;;;2.23;;
10246;SDS011;5168;47.854;7.944;2023-08-31T01:55:35;2.23;;;2.03;;
10246;SDS011;5168;47.854;7.944;2023-08-31T01:58:02;2.53;;;2.33;;
10246;SDS011;5168;47.854;7.944;2023-08-31T02:00:28;2.93;;;2.50;;
10246;SDS011;5168;47.854;7.944;2023-08-31T02:02:53;2.80;;;2.60;;
10246;SDS011;5168;47.854;7.944;2023-08-31T02:05:19;2.60;;;2.40;;
10246;SDS011;5168;47.854;7.944;2023-08-31T02:07:44;3.00;;;2.70;;
10246;SDS011;5168;47.854;7.944;2023-08-31T02:10:10;3.67;;;2.40;;
10246;SDS011;5168;47.854;7.944;2023-08-31T02:12:36;2.40;;;2.20;;
10246;SDS011;5168;47.854;7.944;2023-08-31T02:15:03;2.40;;;2.20;;
10246;SDS011;5168;47.854;7.944;2023-08-31T02:17:30;2.50;;;2.30;;
10246;SDS011;5168;47.854;7.944;2023-08-31T02:19:56;2.97;;;2.67;;
10246;SDS011;5168;47.854;7.944;2023-08-31T02:22:22;2.67;;;2.47;;
10246;SDS011;5168;47.854;7.944;2023-08-31T02:24:48;2.43;;;2.23;;
10246;SDS011;5168;47.854;7.944;2023-08-31T02:27:13;3.03;;;2.23;;
10246;SDS011;5168;47.854;7.944;2023-08-31T02:29:39;2.87;;;2.47;;
10246;SDS011;5168;47.854;7.944;2023-08-31T02:32:05;3.17;;;2.60;;
10246;SDS011;5168;47.854;7.944;2023-08-31T02:34:31;4.97;;;2.33;;
10246;SDS011;5168;47.854;7.944;2023-08-31T02:36:57;2.90;;;2.40;;
10246;SDS011;5168;47.854;7.944;2023-08-31T02:39:22;3.23;;;2.70;;
10246;SDS011;5168;47.854;7.944;2023-08-31T02:41:48;3.10;;;2.77;;
10246;SDS011;5168;47.854;7.944;2023-08-31T02:44:14;2.37;;;2.17;;
10246;SDS011;5168;47.854;7.944;2023-08-31T02:46:40;3.20;;;2.60;;
10246;SDS011;5168;47.854;7.944;2023-08-31T02:49:06;2.63;;;2.43;;
10246;SDS011;5168;47.854;7.944;2023-08-31T02:51:32;2.73;;;2.53;;
10246;SDS011;5168;47.854;7.944;2023-08-31T02:53:57;3.17;;;2.87;;
10246;SDS011;5168;47.854;7.944;2023-08-31T02:56:23;3.63;;;2.70;;
10246;SDS011;5168;47.854;7.944;2023-08-31T02:58:48;3.63;;;2.80;;
10246;SDS011;5168;47.854;7.944;2023-08-31T03:01:14;3.20;;;2.90;;
10246;SDS011;5168;47.854;7.944;2023-08-31T03:03:40;3.70;;;2.70;;
10246;SDS011;5168;47.854;7.944;2023-08-31T03:06:07;3.53;;;3.00;;
10246;SDS011;5168;47.854;7.944;2023-08-31T03:08:34;3.07;;;2.80;;
10246;SDS011;5168;47.854;7.944;2023-08-31T03:11:01;3.53;;;2.83;;
10246;SDS011;5168;47.854;7.944;2023-08-31T03:13:27;5.30;;;3.20;;
10246;SDS011;5168;47.854;7.944;2023-08-31T03:15:53;3.63;;;3.30;;
10246;SDS011;5168;47.854;7.944;2023-08-31T03:18:21;3.20;;;2.90;;
10246;SDS011;5168;47.854;7.944;2023-08-31T03:20:47;3.83;;;3.00;;
10246;SDS011;5168;47.854;7.944;2023-08-31T03:23:12;3.53;;;3.03;;
10246;SDS011;5168;47.854;7.944;2023-08-31T03:25:38;3.77;;;2.80;;
10246;SDS011;5168;47.854;7.944;2023-08-31T03:28:04;4.50;;;3.10;;
10246;SDS011;5168;47.854;7.944;2023-08-31T03:30:30;3.80;;;3.13;;
10246;SDS011;5168;47.854;7.944;2023-08-31T03:32:56;3.17;;;2.87;;
10246;SDS011;5168;47.854;7.944;2023-08-31T03:35:22;3.80;;;3.00;;
10246;SDS011;5168;47.854;7.944;2023-08-31T03:37:54;3.07;;;2.60;;
10246;SDS011;5168;47.854;7.944;2023-08-31T03:40:19;3.23;;;2.87;;
10246;SDS011;5168;47.854;7.944;2023-08-31T03:42:45;4.93;;;3.40;;
10246;SDS011;5168;47.854;7.944;2023-08-31T03:45:11;3.40;;;3.10;;
10246;SDS011;5168;47.854;7.944;2023-08-31T03:47:37;3.73;;;3.10;;
10246;SDS011;5168;47.854;7.944;2023-08-31T03:50:03;3.87;;;3.20;;
10246;SDS011;5168;47.854;7.944;2023-08-31T03:52:29;4.40;;;3.00;;
10246;SDS011;5168;47.854;7.944;2023-08-31T03:54:55;4.67;;;3.10;;
10246;SDS011;5168;47.854;7.944;2023-08-31T03:57:21;3.00;;;2.63;;
10246;SDS011;5168;47.854;7.944;2023-08-31T03:59:47;3.10;;;2.80;;
10246;SDS011;5168;47.854;7.944;2023-08-31T04:02:13;3.40;;;3.10;;
10246;SDS011;5168;47.854;7.944;2023-08-31T04:04:38;3.93;;;3.10;;
10246;SDS011;5168;47.854;7.944;2023-08-31T04:07:04;3.83;;;3.13;;
10246;SDS011;5168;47.854;7.944;2023-08-31T04:09:31;3.30;;;3.00;;
10246;SDS011;5168;47.854;7.944;2023-08-31T04:11:56;5.90;;;3.50;;
10246;SDS011;5168;47.854;7.944;2023-08-31T04:14:22;4.33;;;3.50;;
10246;SDS011;5168;47.854;7.944;2023-08-31T04:16:48;42.30;;;4.53;;
10246;SDS011;5168;47.854;7.944;2023-08-31T04:19:15;14.63;;;3.90;;
10246;SDS011;5168;47.854;7.944;2023-08-31T04:21:41;23.57;;;4.10;;
10246;SDS011;5168;47.854;7.944;2023-08-31T04:24:07;2.80;;;2.50;;
10246;SDS011;5168;47.854;7.944;2023-08-31T04:26:33;3.03;;;2.73;;
10246;SDS011;5168;47.854;7.944;2023-08-31T04:28:59;5.13;;;3.10;;
10246;SDS011;5168;47.854;7.944;2023-08-31T04:31:25;3.90;;;3.60;;
10246;SDS011;5168;47.854;7.944;2023-08-31T04:33:50;4.60;;;3.17;;
10246;SDS011;5168;47.854;7.944;2023-08-31T04:36:19;3.73;;;3.13;;
10246;SDS011;5168;47.854;7.944;2023-08-31T04:38:45;5.10;;;3.33;;
10246;SDS011;5168;47.854;7.944;2023-08-31T04:41:11;3.63;;;3.00;;
10246;SDS011;5168;47.854;7.944;2023-08-31T04:43:37;3.30;;;3.00;;
10246;SDS011;5168;47.854;7.944;2023-08-31T04:46:04;37.83;;;4.70;;
10246;SDS011;5168;47.854;7.944;2023-08-31T04:48:29;4.40;;;3.67;;
10246;SDS011;5168;47.854;7.944;2023-08-31T04:50:55;6.10;;;3.60;;
10246;SDS011;5168;47.854;7.944;2023-08-31T04:53:22;4.53;;;3.50;;
10246;SDS011;5168;47.854;7.944;2023-08-31T04:55:47;3.57;;;2.80;;
10246;SDS011;5168;47.854;7.944;2023-08-31T04:58:13;4.83;;;3.50;;
10246;SDS011;5168;47.854;7.944;2023-08-31T05:00:39;3.40;;;3.10;;
10246;SDS011;5168;47.854;7.944;2023-08-31T05:03:05;4.63;;;3.17;;
10246;SDS011;5168;47.854;7.944;2023-08-31T05:05:31;4.20;;;3.10;;
10246;SDS011;5168;47.854;7.944;2023-08-31T05:07:56;5.53;;;3.10;;
10246;SDS011;5168;47.854;7.944;2023-08-31T05:10:22;3.03;;;2.73;;
10246;SDS011;5168;47.854;7.944;2023-08-31T05:12:48;5.30;;;3.57;;
10246;SDS011;5168;47.854;7.944;2023-08-31T05:15:13;4.80;;;4.10;;
10246;SDS011;5168;47.854;7.944;2023-08-31T05:17:39;3.70;;;3.07;;
10246;SDS011;5168;47.854;7.944;2023-08-31T05:20:04;4.77;;;3.50;;
10246;SDS011;5168;47.854;7.944;2023-08-31T05:22:33;3.23;;;2.93;;
10246;SDS011;5168;47.854;7.944;2023-08-31T05:24:59;3.10;;;2.83;;
10246;SDS011;5168;47.854;7.944;2023-08-31T05:27:25;3.27;;;2.97;;
10246;SDS011;5168;47.854;7.944;2023-08-31T05:29:51;5.43;;;3.50;;
10246;SDS011;5168;47.854;7.944;2023-08-31T05:32:17;3.53;;;3.23;;
10246;SDS011;5168;47.854;7.944;2023-08-31T05:34:43;3.77;;;2.73;;
10246;SDS011;5168;47.854;7.944;2023-08-31T05:37:09;4.10;;;3.20;;
10246;SDS011;5168;47.854;7.944;2023-08-31T05:39:35;3.67;;;3.10;;
10246;SDS011;5168;47.854;7.944;2023-08-31T05:42:01;8.37;;;3.20;;
10246;SDS011;5168;47.854;7.944;2023-08-31T05:44:26;3.60;;;3.30;;
10246;SDS011;5168;47.854;7.944;2023-08-31T05:46:52;6.67;;;3.50;;
10246;SDS011;5168;47.854;7.944;2023-08-31T05:49:17;5.30;;;2.93;;
10246;SDS011;5168;47.854;7.944;2023-08-31T05:51:43;5.13;;;3.27;;
10246;SDS011;5168;47.854;7.944;2023-08-31T05:54:09;6.80;;;3.13;;
10246;SDS011;5168;47.854;7.944;2023-08-31T05:56:38;4.70;;;3.43;;
10246;SDS011;5168;47.854;7.944;2023-08-31T05:59:05;3.90;;;2.83;;
10246;SDS011;5168;47.854;7.944;2023-08-31T06:01:31;5.23;;;2.80;;
10246;SDS011;5168;47.854;7.944;2023-08-31T06:03:57;3.10;;;2.40;;
10246;SDS011;5168;47.854;7.944;2023-08-31T06:06:23;4.80;;;2.90;;
10246;SDS011;5168;47.854;7.944;2023-08-31T06:08:48;3.87;;;2.87;;
10246;SDS011;5168;47.854;7.944;2023-08-31T06:11:14;8.40;;;3.33;;
10246;SDS011;5168;47.854;7.944;2023-08-31T06:13:40;7.67;;;3.43;;
10246;SDS011;5168;47.854;7.944;2023-08-31T06:16:05;5.07;;;3.17;;
10246;SDS011;5168;47.854;7.944;2023-08-31T06:18:31;5.37;;;2.90;;
10246;SDS011;5168;47.854;7.944;2023-08-31T06:20:57;11.93;;;5.87;;
10246;SDS011;5168;47.854;7.944;2023-08-31T06:23:23;16.33;;;10.37;;
10246;SDS011;5168;47.854;7.944;2023-08-31T06:25:49;8.00;;;5.40;;
10246;SDS011;5168;47.854;7.944;2023-08-31T06:28:15;6.43;;;4.30;;
10246;SDS011;5168;47.854;7.944;2023-08-31T06:30:41;4.77;;;3.33;;
10246;SDS011;5168;47.854;7.944;2023-08-31T06:33:12;5.33;;;3.97;;
10246;SDS011;5168;47.854;7.944;2023-08-31T06:35:39;7.47;;;3.27;;
10246;SDS011;5168;47.854;7.944;2023-08-31T06:38:04;5.90;;;3.20;;
10246;SDS011;5168;47.854;7.944;2023-08-31T06:40:30;4.17;;;3.17;;
10246;SDS011;5168;47.854;7.944;2023-08-31T06:42:56;5.17;;;3.30;;
10246;SDS011;5168;47.854;7.944;2023-08-31T06:45:22;3.20;;;2.90;;
10246;SDS011;5168;47.854;7.944;2023-08-31T06:47:49;3.77;;;2.70;;
10246;SDS011;5168;47.854;7.944;2023-08-31T06:50:15;3.93;;;2.83;;
10246;SDS011;5168;47.854;7.944;2023-08-31T06:52:41;6.37;;;3.00;;
10246;SDS011;5168;47.854;7.944;2023-08-31T06:55:06;4.20;;;2.60;;
10246;SDS011;5168;47.854;7.944;2023-08-31T06:57:32;2.60;;;2.40;;
10246;SDS011;5168;47.854;7.944;2023-08-31T06:59:59;4.53;;;2.83;;
10246;SDS011;5168;47.854;7.944;2023-08-31T07:02:28;4.90;;;2.50;;
10246;SDS011;5168;47.854;7.944;2023-08-31T07:04:53;3.10;;;2.80;;
10246;SDS011;5168;47.854;7.944;2023-08-31T07:07:19;3.67;;;2.30;;
10246;SDS011;5168;47.854;7.944;2023-08-31T07:09:46;5.73;;;2.67;;
10246;SDS011;5168;47.854;7.944;2023-08-31T07:12:12;5.33;;;2.50;;
10246;SDS011;5168;47.854;7.944;2023-08-31T07:14:37;5.83;;;2.67;;
10246;SDS011;5168;47.854;7.944;2023-08-31T07:17:03;4.80;;;2.50;;
10246;SDS011;5168;47.854;7.944;2023-08-31T07:19:29;6.33;;;2.77;;
10246;SDS011;5168;47.854;7.944;2023-08-31T07:21:55;4.83;;;2.37;;
10246;SDS011;5168;47.854;7.944;2023-08-31T07:24:22;4.43;;;2.60;;
10246;SDS011;5168;47.854;7.944;2023-08-31T07:26:48;5.83;;;2.50;;
10246;SDS011;5168;47.854;7.944;2023-08-31T07:29:13;5.23;;;2.77;;
10246;SDS011;5168;47.854;7.944;2023-08-31T07:31:39;3.57;;;2.30;;
10246;SDS011;5168;47.854;7.944;2023-08-31T07:34:05;4.07;;;2.03;;
10246;SDS011;5168;47.854;7.944;2023-08-31T07:36:31;3.37;;;2.23;;
10246;SDS011;5168;47.854;7.944;2023-08-31T07:38:56;4.43;;;2.63;;
10246;SDS011;5168;47.854;7.944;2023-08-31T07:41:22;3.00;;;2.13;;
10246;SDS011;5168;47.854;7.944;2023-08-31T07:43:48;6.30;;;2.10;;
10246;SDS011;5168;47.854;7.944;2023-08-31T07:46:14;5.37;;;2.33;;
10246;SDS011;5168;47.854;7.944;2023-08-31T07:48:41;6.00;;;2.20;;
10246;SDS011;5168;47.854;7.944;2023-08-31T07:51:07;4.40;;;2.60;;
10246;SDS011;5168;47.854;7.944;2023-08-31T07:53:33;3.40;;;2.20;;
10246;SDS011;5168;47.854;7.944;2023-08-31T07:55:58;5.40;;;2.50;;
10246;SDS011;5168;47.854;7.944;2023-08-31T07:58:24;4.33;;;2.40;;
10246;SDS011;5168;47.854;7.944;2023-08-31T08:00:54;3.70;;;2.13;;
10246;SDS011;5168;47.854;7.944;2023-08-31T08:03:21;4.17;;;2.00;;
10246;SDS011;5168;47.854;7.944;2023-08-31T08:05:48;4.87;;;2.50;;
10246;SDS011;5168;47.854;7.944;2023-08-31T08:08:13;5.03;;;2.00;;
10246;SDS011;5168;47.854;7.944;2023-08-31T08:10:39;4.90;;;2.60;;
10246;SDS011;5168;47.854;7.944;2023-08-31T08:13:05;2.80;;;2.00;;
10246;SDS011;5168;47.854;7.944;2023-08-31T08:15:31;3.70;;;2.23;;
10246;SDS011;5168;47.854;7.944;2023-08-31T08:17:57;3.33;;;2.23;;
10246;SDS011;5168;47.854;7.944;2023-08-31T08:20:23;3.57;;;2.00;;
10246;SDS011;5168;47.854;7.944;2023-08-31T08:22:50;4.30;;;2.00;;
10246;SDS011;5168;47.854;7.944;2023-08-31T08:25:20;4.90;;;2.13;;
10246;SDS011;5168;47.854;7.944;2023-08-31T08:27:46;2.63;;;2.00;;
10246;SDS011;5168;47.854;7.944;2023-08-31T08:30:12;3.73;;;2.17;;
10246;SDS011;5168;47.854;7.944;2023-08-31T08:32:38;3.10;;;2.00;;
10246;SDS011;5168;47.854;7.944;2023-08-31T08:35:04;4.00;;;2.27;;
10246;SDS011;5168;47.854;7.944;2023-08-31T08:37:31;6.10;;;2.57;;
10246;SDS011;5168;47.854;7.944;2023-08-31T08:39:59;5.90;;;2.00;;
10246;SDS011;5168;47.854;7.944;2023-08-31T08:42:26;3.67;;;2.00;;
10246;SDS011;5168;47.854;7.944;2023-08-31T08:44:52;5.50;;;2.37;;
10246;SDS011;5168;47.854;7.944;2023-08-31T08:47:17;4.07;;;2.40;;
10246;SDS011;5168;47.854;7.944;2023-08-31T08:49:43;3.47;;;2.20;;
10246;SDS011;5168;47.854;7.944;2023-08-31T08:52:10;3.03;;;2.00;;
10246;SDS011;5168;47.854;7.944;2023-08-31T08:54:36;4.13;;;2.40;;
10246;SDS011;5168;47.854;7.944;2023-08-31T08:57:03;6.23;;;2.17;;
10246;SDS011;5168;47.854;7.944;2023-08-31T08:59:30;7.77;;;2.30;;
10246;SDS011;5168;47.854;7.944;2023-08-31T09:01:56;5.03;;;2.27;;
10246;SDS011;5168;47.854;7.944;2023-08-31T09:04:22;3.80;;;2.20;;
10246;SDS011;5168;47.854;7.944;2023-08-31T09:06:47;4.80;;;2.10;;
10246;SDS011;5168;47.854;7.944;2023-08-31T09:09:13;2.93;;;2.10;;
10246;SDS011;5168;47.854;7.944;2023-08-31T09:11:40;3.00;;;1.90;;
10246;SDS011;5168;47.854;7.944;2023-08-31T09:14:15;2.70;;;2.37;;
10246;SDS011;5168;47.854;7.944;2023-08-31T09:16:46;3.93;;;2.43;;
10246;SDS011;5168;47.854;7.944;2023-08-31T09:19:19;5.67;;;2.53;;
10246;SDS011;5168;47.854;7.944;2023-08-31T09:21:50;8.73;;;2.80;;
10246;SDS011;5168;47.854;7.944;2023-08-31T09:24:17;4.60;;;2.70;;
10246;SDS011;5168;47.854;7.944;2023-08-31T09:29:19;3.97;;;2.40;;
10246;SDS011;5168;47.854;7.944;2023-08-31T09:31:45;5.30;;;1.97;;
10246;SDS011;5168;47.854;7.944;2023-08-31T09:34:11;5.83;;;2.43;;
10246;SDS011;5168;47.854;7.944;2023-08-31T09:36:38;5.13;;;2.40;;
10246;SDS011;5168;47.854;7.944;2023-08-31T09:39:04;4.37;;;2.50;;
10246;SDS011;5168;47.854;7.944;2023-08-31T09:41:31;5.40;;;2.10;;
10246;SDS011;5168;47.854;7.944;2023-08-31T09:43:59;3.73;;;2.30;;
10246;SDS011;5168;47.854;7.944;2023-08-31T09:46:40;5.27;;;2.43;;
10246;SDS011;5168;47.854;7.944;2023-08-31T09:49:06;4.17;;;2.30;;
10246;SDS011;5168;47.854;7.944;2023-08-31T09:51:32;6.43;;;2.23;;
10246;SDS011;5168;47.854;7.944;2023-08-31T09:54:00;4.30;;;2.37;;
10246;SDS011;5168;47.854;7.944;2023-08-31T09:56:28;6.53;;;2.60;;
10246;SDS011;5168;47.854;7.944;2023-08-31T09:58:58;6.60;;;2.53;;
10246;SDS011;5168;47.854;7.944;2023-08-31T10:01:24;4.57;;;2.30;;
10246;SDS011;5168;47.854;7.944;2023-08-31T10:03:50;3.70;;;2.30;;
10246;SDS011;5168;47.854;7.944;2023-08-31T10:06:16;5.00;;;2.03;;
10246;SDS011;5168;47.854;7.944;2023-08-31T10:08:43;2.90;;;2.20;;
10246;SDS011;5168;47.854;7.944;2023-08-31T10:11:09;4.43;;;2.20;;
10246;SDS011;5168;47.854;7.944;2023-08-31T10:13:38;3.73;;;2.33;;
10246;SDS011;5168;47.854;7.944;2023-08-31T10:16:06;3.70;;;2.20;;
10246;SDS011;5168;47.854;7.944;2023-08-31T10:18:32;4.23;;;2.50;;
10246;SDS011;5168;47.854;7.944;2023-08-31T10:21:01;5.27;;;2.33;;
10246;SDS011;5168;47.854;7.944;2023-08-31T10:23:27;4.57;;;2.60;;
10246;SDS011;5168;47.854;7.944;2023-08-31T10:31:03;3.53;;;2.27;;
10246;SDS011;5168;47.854;7.944;2023-08-31T10:33:40;4.17;;;2.50;;
10246;SDS011;5168;47.854;7.944;2023-08-31T10:36:11;8.50;;;2.27;;
10246;SDS011;5168;47.854;7.944;2023-08-31T10:38:42;3.27;;;2.20;;
10246;SDS011;5168;47.854;7.944;2023-08-31T10:41:24;4.73;;;2.20;;
10246;SDS011;5168;47.854;7.944;2023-08-31T10:43:56;6.57;;;2.37;;
10246;SDS011;5168;47.854;7.944;2023-08-31T10:46:26;2.93;;;2.13;;
10246;SDS011;5168;47.854;7.944;2023-08-31T10:48:57;3.87;;;2.30;;
10246;SDS011;5168;47.854;7.944;2023-08-31T10:51:39;3.67;;;2.33;;
10246;SDS011;5168;47.854;7.944;2023-08-31T10:59:24;4.40;;;2.40;;
10246;SDS011;5168;47.854;7.944;2023-08-31T11:04:19;6.13;;;2.00;;
10246;SDS011;5168;47.854;7.944;2023-08-31T11:06:45;4.13;;;2.20;;
10246;SDS011;5168;47.854;7.944;2023-08-31T11:09:20;3.67;;;2.00;;
10246;SDS011;5168;47.854;7.944;2023-08-31T11:11:47;6.07;;;2.00;;
10246;SDS011;5168;47.854;7.944;2023-08-31T11:14:13;3.53;;;2.30;;
10246;SDS011;5168;47.854;7.944;2023-08-31T11:16:40;3.40;;;2.23;;
10246;SDS011;5168;47.854;7.944;2023-08-31T11:19:06;3.07;;;2.10;;
10246;SDS011;5168;47.854;7.944;2023-08-31T11:21:32;4.90;;;2.13;;
10246;SDS011;5168;47.854;7.944;2023-08-31T11:23:58;2.57;;;2.00;;
10246;SDS011;5168;47.854;7.944;2023-08-31T11:26:25;5.90;;;2.27;;
10246;SDS011;5168;47.854;7.944;2023-08-31T11:28:51;4.70;;;2.33;;
10246;SDS011;5168;47.854;7.944;2023-08-31T11:31:23;4.57;;;2.00;;
10246;SDS011;5168;47.854;7.944;2023-08-31T11:33:49;5.43;;;2.37;;
10246;SDS011;5168;47.854;7.944;2023-08-31T11:36:15;3.53;;;2.27;;
10246;SDS011;5168;47.854;7.944;2023-08-31T11:38:42;4.70;;;2.53;;
10246;SDS011;5168;47.854;7.944;2023-08-31T11:41:08;2.80;;;2.07;;
10246;SDS011;5168;47.854;7.944;2023-08-31T11:43:34;4.33;;;2.20;;
10246;SDS011;5168;47.854;7.944;2023-08-31T11:46:01;2.53;;;2.33;;
10246;SDS011;5168;47.854;7.944;2023-08-31T11:48:28;2.80;;;2.07;;
10246;SDS011;5168;47.854;7.944;2023-08-31T11:50:54;3.80;;;2.30;;
10246;SDS011;5168;47.854;7.944;2023-08-31T11:53:20;6.20;;;2.20;;
10246;SDS011;5168;47.854;7.944;2023-08-31T11:55:49;5.77;;;2.20;;
10246;SDS011;5168;47.854;7.944;2023-08-31T11:58:16;4.63;;;2.10;;
10246;SDS011;5168;47.854;7.944;2023-08-31T12:00:42;3.87;;;2.20;;
10246;SDS011;5168;47.854;7.944;2023-08-31T12:03:08;2.40;;;1.90;;
10246;SDS011;5168;47.854;7.944;2023-08-31T12:05:46;4.87;;;2.43;;
10246;SDS011;5168;47.854;7.944;2023-08-31T12:08:16;5.83;;;2.17;;
10246;SDS011;5168;47.854;7.944;2023-08-31T12:10:48;4.07;;;2.50;;
10246;SDS011;5168;47.854;7.944;2023-08-31T12:13:13;2.07;;;1.83;;
10246;SDS011;5168;47.854;7.944;2023-08-31T12:15:39;3.87;;;2.47;;
10246;SDS011;5168;47.854;7.944;2023-08-31T12:18:11;2.87;;;2.10;;
10246;SDS011;5168;47.854;7.944;2023-08-31T12:20:45;4.43;;;2.50;;
10246;SDS011;5168;47.854;7.944;2023-08-31T12:23:19;2.50;;;2.10;;
10246;SDS011;5168;47.854;7.944;2023-08-31T12:25:49;3.77;;;2.03;;
10246;SDS011;5168;47.854;7.944;2023-08-31T12:28:19;3.90;;;2.30;;
10246;SDS011;5168;47.854;7.944;2023-08-31T12:30:49;4.47;;;2.10;;
10246;SDS011;5168;47.854;7.944;2023-08-31T12:33:16;3.90;;;2.37;;
10246;SDS011;5168;47.854;7.944;2023-08-31T12:35:43;3.97;;;2.00;;
10246;SDS011;5168;47.854;7.944;2023-08-31T12:38:08;5.43;;;2.60;;
10246;SDS011;5168;47.854;7.944;2023-08-31T12:40:34;4.50;;;2.20;;
10246;SDS011;5168;47.854;7.944;2023-08-31T12:43:00;3.63;;;2.20;;
10246;SDS011;5168;47.854;7.944;2023-08-31T12:45:27;3.73;;;2.30;;
10246;SDS011;5168;47.854;7.944;2023-08-31T12:47:52;3.97;;;2.50;;
10246;SDS011;5168;47.854;7.944;2023-08-31T12:50:18;2.80;;;2.20;;
10246;SDS011;5168;47.854;7.944;2023-08-31T12:52:44;3.20;;;2.43;;
10246;SDS011;5168;47.854;7.944;2023-08-31T12:55:11;3.63;;;2.10;;
10246;SDS011;5168;47.854;7.944;2023-08-31T12:57:37;3.17;;;2.20;;
10246;SDS011;5168;47.854;7.944;2023-08-31T13:00:03;3.23;;;2.20;;
10246;SDS011;5168;47.854;7.944;2023-08-31T13:02:30;3.83;;;2.43;;
10246;SDS011;5168;47.854;7.944;2023-08-31T13:04:56;2.73;;;2.13;;
10246;SDS011;5168;47.854;7.944;2023-08-31T13:07:21;3.23;;;2.10;;
10246;SDS011;5168;47.854;7.944;2023-08-31T13:09:47;3.57;;;2.23;;
10246;SDS011;5168;47.854;7.944;2023-08-31T13:12:13;3.23;;;1.90;;
10246;SDS011;5168;47.854;7.944;2023-08-31T13:14:39;6.37;;;2.27;;
10246;SDS011;5168;47.854;7.944;2023-08-31T13:17:05;3.67;;;2.47;;
10246;SDS011;5168;47.854;7.944;2023-08-31T13:19:31;3.07;;;2.20;;
10246;SDS011;5168;47.854;7.944;2023-08-31T13:21:56;4.43;;;2.37;;
10246;SDS011;5168;47.854;7.944;2023-08-31T13:24:22;4.70;;;2.07;;
10246;SDS011;5168;47.854;7.944;2023-08-31T13:26:48;5.20;;;2.23;;
10246;SDS011;5168;47.854;7.944;2023-08-31T13:29:14;4.00;;;2.50;;
10246;SDS011;5168;47.854;7.944;2023-08-31T13:31:41;3.23;;;2.10;;
10246;SDS011;5168;47.854;7.944;2023-08-31T13:34:07;3.07;;;2.07;;
10246;SDS011;5168;47.854;7.944;2023-08-31T13:36:33;4.17;;;2.23;;
10246;SDS011;5168;47.854;7.944;2023-08-31T13:38:59;2.97;;;2.23;;
10246;SDS011;5168;47.854;7.944;2023-08-31T13:41:24;5.20;;;2.27;;
10246;SDS011;5168;47.854;7.944;2023-08-31T13:43:50;6.83;;;2.33;;
10246;SDS011;5168;47.854;7.944;2023-08-31T13:46:17;4.13;;;2.60;;
10246;SDS011;5168;47.854;7.944;2023-08-31T13:48:42;2.73;;;1.97;;
10246;SDS011;5168;47.854;7.944;2023-08-31T13:51:09;4.67;;;2.30;;
10246;SDS011;5168;47.854;7.944;2023-08-31T13:53:34;3.47;;;2.27;;
10246;SDS011;5168;47.854;7.944;2023-08-31T13:56:00;5.10;;;2.70;;
10246;SDS011;5168;47.854;7.944;2023-08-31T13:58:27;3.93;;;2.30;;
10246;SDS011;5168;47.854;7.944;2023-08-31T14:00:52;5.77;;;2.07;;
10246;SDS011;5168;47.854;7.944;2023-08-31T14:03:18;3.83;;;2.43;;
10246;SDS011;5168;47.854;7.944;2023-08-31T14:05:47;4.50;;;2.40;;
10246;SDS011;5168;47.854;7.944;2023-08-31T14:08:14;4.53;;;2.30;;
10246;SDS011;5168;47.854;7.944;2023-08-31T14:10:39;6.00;;;2.30;;
10246;SDS011;5168;47.854;7.944;2023-08-31T14:13:05;3.73;;;2.40;;
10246;SDS011;5168;47.854;7.944;2023-08-31T14:15:31;2.20;;;2.00;;
10246;SDS011;5168;47.854;7.944;2023-08-31T14:17:57;4.57;;;2.30;;
10246;SDS011;5168;47.854;7.944;2023-08-31T14:20:23;2.23;;;2.03;;
10246;SDS011;5168;47.854;7.944;2023-08-31T14:22:49;5.30;;;2.63;;
10246;SDS011;5168;47.854;7.944;2023-08-31T14:25:15;3.33;;;2.37;;
10246;SDS011;5168;47.854;7.944;2023-08-31T14:27:41;3.60;;;2.60;;
10246;SDS011;5168;47.854;7.944;2023-08-31T14:30:08;7.90;;;2.80;;
10246;SDS011;5168;47.854;7.944;2023-08-31T14:32:34;4.43;;;2.60;;
10246;SDS011;5168;47.854;7.944;2023-08-31T14:35:00;5.43;;;3.00;;
10246;SDS011;5168;47.854;7.944;2023-08-31T14:37:26;3.73;;;2.30;;
10246;SDS011;5168;47.854;7.944;2023-08-31T14:39:52;5.60;;;2.50;;
10246;SDS011;5168;47.854;7.944;2023-08-31T14:42:18;4.43;;;2.70;;
10246;SDS011;5168;47.854;7.944;2023-08-31T14:44:46;3.23;;;2.10;;
10246;SDS011;5168;47.854;7.944;2023-08-31T14:47:12;3.40;;;2.40;;
10246;SDS011;5168;47.854;7.944;2023-08-31T14:49:40;3.83;;;2.47;;
10246;SDS011;5168;47.854;7.944;2023-08-31T14:52:06;5.53;;;2.83;;
10246;SDS011;5168;47.854;7.944;2023-08-31T14:54:32;4.57;;;2.30;;
10246;SDS011;5168;47.854;7.944;2023-08-31T14:56:58;2.67;;;2.13;;
10246;SDS011;5168;47.854;7.944;2023-08-31T14:59:24;3.80;;;2.03;;
10246;SDS011;5168;47.854;7.944;2023-08-31T15:01:50;4.73;;;2.67;;
10246;SDS011;5168;47.854;7.944;2023-08-31T15:04:16;4.27;;;2.27;;
10246;SDS011;5168;47.854;7.944;2023-08-31T15:06:42;2.90;;;2.43;;
10246;SDS011;5168;47.854;7.944;2023-08-31T15:09:07;4.90;;;2.23;;
10246;SDS011;5168;47.854;7.944;2023-08-31T15:11:33;3.83;;;2.30;;
10246;SDS011;5168;47.854;7.944;2023-08-31T15:13:59;5.57;;;2.50;;
10246;SDS011;5168;47.854;7.944;2023-08-31T15:16:26;3.07;;;2.23;;
10246;SDS011;5168;47.854;7.944;2023-08-31T15:18:53;3.77;;;2.10;;
10246;SDS011;5168;47.854;7.944;2023-08-31T15:21:19;2.93;;;2.13;;